Skip Navigation LinksHome page > Weather > Current weather Skip Navigation Links

Current Weather

Central Park, New York

For information only: do not use for flight planning or navigation.
Latest weather
Observation time Sunday, May 1, 2016 11:23 AM EDT
Local time Sunday, May 1, 2016 11:28 AM EDT
Flight conditions Marginal Visual Meteorological Conditions
Winds
Wind direction variable
Wind speed 5 mph
Visibility 10 mi.
Sky condition
Ceiling 1,900 ft. broken clouds
Cloud layer broken clouds 1,900 ft.
Cloud layer broken clouds 3,200 ft.
Cloud layer overcast 4,100 ft.
Temperature 48°F
Dewpoint 43°F
Altimeter 30.23 in.Hg
Precipitation
VR 11:03 AM
Rain ended 11:05 AM
Precipitation last hour trace
Derived measurements
Relative humidity 83%
Wind chill 46°F
Density altitude -791 ft.
Remarks
Special weather observation.
Fully automated report.
System requires maintenance.
Automated weather observing station with precipitation discriminator.
METAR SPECI KNYC 011523Z AUTO VRB04KT 10SM BKN019 BKN032 OVC041 09/06 A3023 RMK AO2 RAE05 P0000 T00890061 $ SPUS31 KWBC 011525 SPECI KATL 011521Z VRB03KT 10SM BKN022 BKN060 25/19 A3005

Settings

Location code

InnerDrive.Weather 4.0.5722.1 Release CLR 4.0.30319.34209
Copyright ©2015 Inner Drive Technology. All rights reserved. Portions Copyright ©1986-2015 David Braverman.

Find weather

Site navigation


Skip Navigation Links

Place info

Page info

PayPal - The safer, easier way to pay online!

Return home.

Copyright ©2016 Inner Drive Technology. Purveyors of fine, hand-crafted computer software. Page printed 2016-05-01T15:28:58 UTC.